Burnettown, South Carolina
Current Conditions -  °F | °C
As of 7:55 PM on Friday 31 Oct 2014 (Local Time) from KAIK Reporting Station
Light Rain Light Rain  
Wind Chill: 61°   Ceiling: 9000
Heat Index: 61°   Visibility: 10mi
Dew Point: 50°   Wind: 3mph
Humidity: 68%   Direction: 270°W
Pressure: 29.83"   Gusts: NA
Location:  33.5144°N, 81.819°W
Report Text: KAIK 312355Z AUTO 27003KT 10SM -RA SCT070 OVC090 16/10 A2983 RMK AO2 PNO
Loading
Personal Weather Stations






























Interactive Weather Map
Tropical Storm Tracking
New forecast layout! Learn more

10-Day Weather Forecast

Advertisements
Track Severe Weather on mobile